Highland, Nebraska
Current Conditions -  °F | °C
As of 11:35 PM on Saturday 25 Oct 2014 (Local Time) from KBIE Reporting Station
Clear Clear  
Wind Chill: 58°   Ceiling: Unl
Heat Index: 58°   Visibility: 10mi
Dew Point: 46°   Wind: 6mph
Humidity: 64%   Direction: 90°E
Pressure: 29.98"   Gusts: NA
Location:  40.4797°N, 96.7417°W
Report Text: KBIE 260435Z AUTO 09005KT 10SM CLR 15/08 A2998 RMK AO2 T01450078
Loading
Personal Weather Stations






























Interactive Weather Map
Tropical Storm Tracking
New forecast layout! Learn more

10-Day Weather Forecast

Advertisements
Track Severe Weather on mobile